Time;durP1;ratioP1;P1;durP2;ratioP2;P2;SDS_P1;SDS_P2;PMS_P1;PMS_P2;Temp;Humidity;BMP_temperature;BMP_pressure;BME280_temperature;BME280_humidity;BME280_pressure;Samples;Min_cycle;Max_cycle;Signal;HPM_P1;HPM_P2
2023/02/09 00:01:11;;;;;;;;;;;;;;;-142.75;99.69;79821.56;4991124;28;20552;-67
2023/02/09 00:03:36;;;;;;;;;;;;;;;-142.75;99.24;79825.50;4992401;28;19921;-69
2023/02/09 00:06:02;;;;;;;;;;;;;;;-142.75;100.00;79817.63;4992474;28;19936;-67
2023/02/09 00:08:28;;;;;;;;;;;;;;;-142.75;100.00;79809.75;4991459;28;19924;-67
2023/02/09 00:10:53;;;;;;;;;;;;;;;-142.75;100.00;79807.78;4991026;28;19917;-67
2023/02/09 00:13:22;;;;;;;;;;;;;;;-142.75;100.00;79803.84;4991099;28;19921;-67
2023/02/09 00:15:51;;;;;;;;;;;;;;;-142.75;100.00;79811.72;4992160;28;19913;-67
2023/02/09 00:18:16;;;;;;;;;;;;;;;-142.75;100.00;79833.38;4992307;28;19914;-66
2023/02/09 00:20:42;;;;;;;;;;;;;;;-142.75;100.00;79843.22;4992150;28;20409;-67
2023/02/09 00:23:07;;;;;;;;;;;;;;;-142.75;100.00;79831.41;4992023;28;19922;-67
2023/02/09 00:25:32;;;;;;;;;;;;;;;-142.75;100.00;79831.41;4991901;28;20003;-66
2023/02/09 00:27:57;;;;;;;;;;;;;;;-142.75;100.00;79835.34;4992006;28;19917;-68
2023/02/09 00:30:23;;;;;;;;;;;;;;;-142.75;100.00;79843.22;4990751;28;19921;-67
2023/02/09 00:32:48;;;;;;;;;;;;;;;-142.75;100.00;79849.16;4992068;28;19922;-67
2023/02/09 00:35:13;;;;;;;;;;;;;;;-142.75;100.00;79855.06;4990493;28;19920;-66
2023/02/09 00:37:38;;;;;;;;;;;;;;;-142.75;100.00;79866.88;4978738;28;19969;-67
2023/02/09 00:40:04;;;;;;;;;;;;;;;-142.75;100.00;79880.66;4988835;28;19914;-65
2023/02/09 00:42:29;;;;;;;;;;;;;;;-142.75;99.59;79890.50;4991891;28;19984;-67
2023/02/09 00:44:54;;;;;;;;;;;;;;;-142.75;98.93;79880.66;4991672;28;19957;-66
2023/02/09 00:47:19;;;;;;;;;;;;;;;-142.75;98.58;79870.81;4991846;28;20293;-67
2023/02/09 00:49:44;;;;;;;;;;;;;;;-142.75;98.39;79864.91;4991733;28;19932;-68
2023/02/09 00:52:10;;;;;;;;;;;;;;;-142.75;98.10;79866.88;4990157;28;19913;-66
2023/02/09 00:54:35;;;;;;;;;;;;;;;-142.75;96.94;79874.75;4989961;28;19918;-67
2023/02/09 00:57:04;;;;;;;;;;;;;;;-142.75;96.28;79866.88;4991684;28;20008;-66
2023/02/09 00:59:29;;;;;;;;;;;;;;;-142.75;95.94;79851.13;4991713;28;19920;-67
2023/02/09 01:01:54;;;;;;;;;;;;;;;-142.75;95.53;79866.88;4991540;28;19918;-67
2023/02/09 01:04:19;;;;;;;;;;;;;;;-142.75;95.31;79876.72;4991591;28;20348;-67
2023/02/09 01:06:45;;;;;;;;;;;;;;;-142.75;95.70;79888.53;4991309;28;19960;-66
2023/02/09 01:09:10;;;;;;;;;;;;;;;-142.75;95.52;79878.69;4991670;28;20332;-67
2023/02/09 01:11:35;;;;;;;;;;;;;;;-142.75;95.58;79878.69;4991549;28;19960;-67
2023/02/09 01:14:03;;;;;;;;;;;;;;;-142.75;96.10;79886.56;4990279;28;19914;-67
2023/02/09 01:16:30;;;;;;;;;;;;;;;-142.75;94.91;79878.69;4991262;28;19917;-67
2023/02/09 01:18:57;;;;;;;;;;;;;;;-142.75;94.64;79870.81;4991575;28;19921;-64
2023/02/09 01:21:22;;;;;;;;;;;;;;;-142.75;93.73;79868.84;4991319;28;19921;-66
2023/02/09 01:23:47;;;;;;;;;;;;;;;-142.75;93.77;79894.47;4990138;28;20012;-67
2023/02/09 01:26:14;;;;;;;;;;;;;;;-142.75;92.99;79890.50;4991316;28;19945;-68
2023/02/09 01:28:40;;;;;;;;;;;;;;;-142.75;93.00;79894.47;4991515;28;20017;-67
2023/02/09 01:31:16;;;;;;;;;;;;;;;-142.75;92.98;79884.59;4991343;28;19913;-67
2023/02/09 01:33:41;;;;;;;;;;;;;;;-142.75;93.14;79892.50;4990303;28;20432;-66
2023/02/09 01:36:06;;;;;;;;;;;;;;;-142.75;92.74;79894.47;4991194;28;20008;-66
2023/02/09 01:38:32;;;;;;;;;;;;;;;-142.75;92.01;79886.56;4990106;28;20404;-66
2023/02/09 01:40:57;;;;;;;;;;;;;;;-142.75;92.48;79906.28;4991213;28;19921;-67
2023/02/09 01:43:22;;;;;;;;;;;;;;;-142.75;93.13;79902.34;4991313;28;20386;-66
2023/02/09 01:45:49;;;;;;;;;;;;;;;-142.75;93.19;79898.41;4989766;28;19940;-67
2023/02/09 01:48:15;;;;;;;;;;;;;;;-142.75;93.04;79898.41;4989926;28;19914;-67
2023/02/09 01:50:44;;;;;;;;;;;;;;;-142.75;92.74;79900.38;4991169;28;20008;-67
2023/02/09 01:53:09;;;;;;;;;;;;;;;-142.75;92.86;79898.41;4991401;28;19992;-66
2023/02/09 01:55:38;;;;;;;;;;;;;;;-142.75;93.25;79896.44;4990830;28;19945;-67
2023/02/09 01:58:08;;;;;;;;;;;;;;;-142.75;93.68;79894.47;4991279;28;19917;-66
2023/02/09 02:00:33;;;;;;;;;;;;;;;-142.75;94.35;79904.31;4991168;28;20005;-66
2023/02/09 02:03:02;;;;;;;;;;;;;;;-142.75;93.31;79886.56;4991057;28;19933;-68
2023/02/09 02:05:28;;;;;;;;;;;;;;;-142.75;92.93;79884.59;4993442;28;19914;-67
2023/02/09 02:07:56;;;;;;;;;;;;;;;-142.75;94.47;79876.72;4994694;28;19921;-67
2023/02/09 02:10:21;;;;;;;;;;;;;;;-142.75;94.96;79896.44;4993481;28;20329;-68
2023/02/09 02:12:47;;;;;;;;;;;;;;;-142.75;95.11;79894.47;4994654;28;19914;-66
2023/02/09 02:15:12;;;;;;;;;;;;;;;-142.75;94.30;79902.34;4994316;28;19925;-66
2023/02/09 02:17:50;;;;;;;;;;;;;;;-142.75;94.66;79908.25;4993187;28;20304;-67
2023/02/09 02:20:15;;;;;;;;;;;;;;;-142.75;94.48;79906.28;4994462;28;19922;-66
2023/02/09 02:22:58;;;;;;;;;;;;;;;-142.75;95.06;79925.97;4994404;28;19925;-66
2023/02/09 02:25:42;;;;;;;;;;;;;;;-142.75;96.38;79908.25;4994225;28;19953;-67
2023/02/09 02:28:12;;;;;;;;;;;;;;;-142.75;96.90;79902.34;4994351;28;19921;-66
2023/02/09 02:30:49;;;;;;;;;;;;;;;-142.75;97.37;79902.34;4994156;28;19924;-66
2023/02/09 02:33:29;;;;;;;;;;;;;;;-142.75;98.08;79886.56;4994288;28;19917;-67
2023/02/09 02:36:13;;;;;;;;;;;;;;;-142.75;98.74;79882.63;4993829;28;19928;-66
2023/02/09 02:38:52;;;;;;;;;;;;;;;-142.75;99.00;79866.88;4994114;28;19917;-66
2023/02/09 02:41:22;;;;;;;;;;;;;;;-142.75;98.77;79868.84;4992601;28;20296;-67
2023/02/09 02:43:50;;;;;;;;;;;;;;;-142.75;97.71;79864.91;4993856;28;20598;-66
2023/02/09 02:46:15;;;;;;;;;;;;;;;-142.75;97.29;79866.88;4993861;28;20615;-66
2023/02/09 02:48:43;;;;;;;;;;;;;;;-142.75;98.31;79874.75;4992667;28;19918;-67
2023/02/09 02:51:13;;;;;;;;;;;;;;;-142.75;99.80;79870.81;4992401;28;19921;-66
2023/02/09 02:53:40;;;;;;;;;;;;;;;-142.75;99.63;79851.13;4993815;28;19924;-66
2023/02/09 02:56:09;;;;;;;;;;;;;;;-142.75;99.76;79862.94;4993755;28;19917;-67
2023/02/09 02:58:35;;;;;;;;;;;;;;;-142.75;99.17;79862.94;4993796;28;20016;-67
2023/02/09 03:01:02;;;;;;;;;;;;;;;-142.75;99.48;79880.66;4993680;28;20008;-66
2023/02/09 03:03:31;;;;;;;;;;;;;;;-142.75;99.86;79886.56;4993633;28;19914;-66
2023/02/09 03:05:58;;;;;;;;;;;;;;;-142.75;99.20;79870.81;4993421;28;19913;-67
2023/02/09 03:08:23;;;;;;;;;;;;;;;-142.75;98.44;79874.75;4993689;28;20305;-67
2023/02/09 03:10:48;;;;;;;;;;;;;;;-142.75;96.95;79862.94;4992120;28;19914;-67
2023/02/09 03:13:14;;;;;;;;;;;;;;;-142.75;96.64;79862.94;4993479;28;19950;-64
2023/02/09 03:15:39;;;;;;;;;;;;;;;-142.75;97.58;79851.13;4992452;28;19913;-68
2023/02/09 03:18:11;;;;;;;;;;;;;;;-142.75;97.10;79864.91;4993151;28;19913;-66
2023/02/09 03:20:49;;;;;;;;;;;;;;;-142.75;97.31;79866.88;4993333;28;19968;-67
2023/02/09 03:23:21;;;;;;;;;;;;;;;-142.75;95.85;79843.22;4993162;28;19917;-66
2023/02/09 03:25:51;;;;;;;;;;;;;;;-142.75;95.04;79841.25;4992896;28;20378;-65
2023/02/09 03:28:27;;;;;;;;;;;;;;;-142.75;95.27;79853.09;4993186;28;19941;-64
2023/02/09 03:30:53;;;;;;;;;;;;;;;-142.75;96.83;79853.09;4993210;28;20005;-67
2023/02/09 03:33:19;;;;;;;;;;;;;;;-142.75;97.61;79833.38;4993005;28;20020;-67
2023/02/09 03:35:46;;;;;;;;;;;;;;;-142.75;98.11;79817.63;4992903;28;19917;-65
2023/02/09 03:38:11;;;;;;;;;;;;;;;-142.75;96.42;79839.28;4991752;28;19936;-67
2023/02/09 03:40:37;;;;;;;;;;;;;;;-142.75;94.39;79835.34;4992835;28;19925;-68
2023/02/09 03:43:02;;;;;;;;;;;;;;;-142.75;93.49;79825.50;4992630;28;19918;-66
2023/02/09 03:45:27;;;;;;;;;;;;;;;-142.75;93.29;79839.28;4992630;28;19914;-64
2023/02/09 03:47:52;;;;;;;;;;;;;;;-142.75;92.91;79835.34;4992034;28;19924;-67
2023/02/09 03:50:18;;;;;;;;;;;;;;;-142.75;93.58;79829.44;4991575;28;19913;-66
2023/02/09 03:52:43;;;;;;;;;;;;;;;-142.75;92.70;79835.34;4992740;28;19913;-68
2023/02/09 03:55:08;;;;;;;;;;;;;;;-142.75;92.80;79845.22;4982672;28;19953;-65
2023/02/09 03:57:34;;;;;;;;;;;;;;;-142.75;92.02;79839.28;4991666;28;20000;-66
2023/02/09 04:00:00;;;;;;;;;;;;;;;-142.75;91.21;79835.34;4992420;28;20404;-66
2023/02/09 04:02:25;;;;;;;;;;;;;;;-142.75;91.96;79847.19;4992413;28;20037;-66
2023/02/09 04:04:52;;;;;;;;;;;;;;;-142.75;91.46;79841.25;4991048;28;19937;-63
2023/02/09 04:07:17;;;;;;;;;;;;;;;-142.75;92.35;79853.09;4991211;28;19913;-67
2023/02/09 04:09:42;;;;;;;;;;;;;;;-142.75;93.26;79851.13;4992319;28;20344;-66
2023/02/09 04:12:08;;;;;;;;;;;;;;;-142.75;94.09;79866.88;4991083;28;19932;-65
2023/02/09 04:14:33;;;;;;;;;;;;;;;-142.75;93.27;79851.13;4992070;28;20012;-64
2023/02/09 04:16:58;;;;;;;;;;;;;;;-142.75;93.39;79860.97;4991052;28;19917;-67
2023/02/09 04:19:23;;;;;;;;;;;;;;;-142.75;93.42;79855.06;4992351;28;19936;-66
2023/02/09 04:21:48;;;;;;;;;;;;;;;-142.75;94.92;79845.22;4992041;28;20415;-68
2023/02/09 04:24:14;;;;;;;;;;;;;;;-142.75;96.99;79841.25;4990898;28;19920;-65
2023/02/09 04:26:39;;;;;;;;;;;;;;;-142.75;95.42;79847.19;4992001;28;19914;-68
2023/02/09 04:29:04;;;;;;;;;;;;;;;-142.75;94.73;79853.09;4990695;28;20296;-67
2023/02/09 04:31:29;;;;;;;;;;;;;;;-142.75;95.50;79843.22;4992053;28;19920;-67
2023/02/09 04:33:55;;;;;;;;;;;;;;;-142.75;95.51;79841.25;4976713;28;19920;-63
2023/02/09 04:36:22;;;;;;;;;;;;;;;-142.75;94.80;79849.16;4989689;28;19913;-67
2023/02/09 04:38:47;;;;;;;;;;;;;;;-142.75;94.75;79851.13;4990647;28;19914;-66
2023/02/09 04:41:12;;;;;;;;;;;;;;;-142.75;94.37;79841.25;4990496;28;20254;-66
2023/02/09 04:43:37;;;;;;;;;;;;;;;-142.75;93.82;79851.13;4991684;28;20013;-65
2023/02/09 04:46:03;;;;;;;;;;;;;;;-142.75;93.91;79853.09;4991657;28;19949;-66
2023/02/09 04:48:28;;;;;;;;;;;;;;;-142.75;94.11;79851.13;4991933;28;20008;-66
2023/02/09 04:50:53;;;;;;;;;;;;;;;-142.75;96.21;79849.16;4991676;28;19959;-66
2023/02/09 04:53:19;;;;;;;;;;;;;;;-142.75;97.33;79864.91;4990631;28;19920;-66
2023/02/09 04:55:45;;;;;;;;;;;;;;;-142.75;98.88;79851.13;4991499;28;19914;-66
2023/02/09 05:00:55;;;;;;;;;;;;;;;-142.75;98.65;79839.28;4991984;28;19949;-66
2023/02/09 05:03:20;;;;;;;;;;;;;;;-142.75;98.96;79839.28;4991564;28;20388;-64
2023/02/09 05:05:45;;;;;;;;;;;;;;;-142.75;96.62;79843.22;4991469;28;19949;-67
2023/02/09 05:08:10;;;;;;;;;;;;;;;-142.75;95.64;79835.34;4991560;28;19920;-66
2023/02/09 05:10:36;;;;;;;;;;;;;;;-142.75;96.18;79841.25;4990172;28;19917;-66
2023/02/09 05:13:01;;;;;;;;;;;;;;;-142.75;95.25;79855.06;4990163;28;19913;-64
2023/02/09 05:15:26;;;;;;;;;;;;;;;-142.75;95.72;79855.06;4991363;28;19948;-66
2023/02/09 05:17:51;;;;;;;;;;;;;;;-142.75;95.38;79866.88;4991533;28;19956;-66
2023/02/09 05:20:17;;;;;;;;;;;;;;;-142.75;95.35;79860.97;4990240;28;20448;-66
2023/02/09 05:22:42;;;;;;;;;;;;;;;-142.75;95.91;79859.00;4991451;28;19918;-67
2023/02/09 05:25:07;;;;;;;;;;;;;;;-142.75;97.72;79866.88;4991118;28;19940;-67
2023/02/09 05:27:32;;;;;;;;;;;;;;;-142.75;97.97;79886.56;4991384;28;19914;-68
2023/02/09 05:29:58;;;;;;;;;;;;;;;-142.75;98.67;79862.94;4991347;28;19917;-67
2023/02/09 05:32:23;;;;;;;;;;;;;;;-142.75;98.11;79857.03;4991466;28;19914;-67
2023/02/09 05:34:48;;;;;;;;;;;;;;;-142.75;97.91;79866.88;4991092;28;20395;-65
2023/02/09 05:37:13;;;;;;;;;;;;;;;-142.75;97.95;79862.94;4990139;28;19921;-66
2023/02/09 05:39:38;;;;;;;;;;;;;;;-142.75;97.91;79864.91;4992509;28;19913;-64
2023/02/09 05:42:16;;;;;;;;;;;;;;;-142.75;97.58;79862.94;4993648;28;19924;-67
2023/02/09 05:44:48;;;;;;;;;;;;;;;-142.75;97.37;79862.94;4993629;28;19913;-66
2023/02/09 05:47:15;;;;;;;;;;;;;;;-142.75;97.49;79870.81;4995210;28;19931;-68
2023/02/09 05:49:41;;;;;;;;;;;;;;;-142.75;97.49;79864.91;4995169;28;19913;-67
2023/02/09 05:52:06;;;;;;;;;;;;;;;-142.75;98.58;79864.91;4994783;28;19920;-66
2023/02/09 05:54:31;;;;;;;;;;;;;;;-142.75;100.00;79882.63;4994841;28;19992;-66
2023/02/09 05:56:57;;;;;;;;;;;;;;;-142.75;100.00;79868.84;4994809;28;21341;-67
2023/02/09 05:59:22;;;;;;;;;;;;;;;-142.75;100.00;79888.53;4994825;28;19960;-67
2023/02/09 06:01:47;;;;;;;;;;;;;;;-142.75;100.00;79890.50;4994726;28;20447;-65
2023/02/09 06:04:12;;;;;;;;;;;;;;;-142.75;100.00;79892.50;4994535;28;19920;-67
2023/02/09 06:06:38;;;;;;;;;;;;;;;-142.75;100.00;79886.56;4994584;28;19964;-66
2023/02/09 06:09:03;;;;;;;;;;;;;;;-142.75;99.53;79896.44;4994537;28;20453;-68
2023/02/09 06:11:29;;;;;;;;;;;;;;;-142.75;99.45;79894.47;4994566;28;20297;-66
2023/02/09 06:13:54;;;;;;;;;;;;;;;-142.75;100.00;79906.28;4994516;28;19919;-66
2023/02/09 06:16:19;;;;;;;;;;;;;;;-142.75;100.00;79910.22;4994307;28;20274;-67
2023/02/09 06:18:44;;;;;;;;;;;;;;;-142.75;99.00;79914.16;4993284;28;19953;-67
2023/02/09 06:21:10;;;;;;;;;;;;;;;-142.75;98.28;79918.09;4992985;28;19940;-67
2023/02/09 06:23:36;;;;;;;;;;;;;;;-142.75;98.35;79920.06;4993029;28;19921;-67
2023/02/09 06:26:08;;;;;;;;;;;;;;;-142.75;97.63;79935.84;4993973;28;19913;-67
2023/02/09 06:28:33;;;;;;;;;;;;;;;-142.75;97.46;79922.03;4994319;28;20040;-66
2023/02/09 06:30:59;;;;;;;;;;;;;;;-142.75;96.24;79924.00;4994253;28;20012;-67
2023/02/09 06:33:24;;;;;;;;;;;;;;;-142.75;96.69;79914.16;4994162;28;19945;-68
2023/02/09 06:35:49;;;;;;;;;;;;;;;-142.75;96.93;79908.25;4994052;28;19921;-66
2023/02/09 06:38:14;;;;;;;;;;;;;;;-142.75;97.03;79908.25;4993009;28;19914;-68
2023/02/09 06:40:39;;;;;;;;;;;;;;;-142.75;97.37;79906.28;4992089;28;19945;-66
2023/02/09 06:43:05;;;;;;;;;;;;;;;-142.75;97.32;79910.22;4994025;28;20011;-66
2023/02/09 06:45:30;;;;;;;;;;;;;;;-142.75;98.26;79912.19;4992210;28;19921;-65
2023/02/09 06:47:55;;;;;;;;;;;;;;;-142.75;98.63;79924.00;4993959;28;20377;-66
2023/02/09 06:50:20;;;;;;;;;;;;;;;-142.75;98.18;79918.09;4993329;28;20301;-64
2023/02/09 06:52:46;;;;;;;;;;;;;;;-142.75;98.26;79914.16;4993317;28;20328;-67
2023/02/09 06:55:11;;;;;;;;;;;;;;;-142.75;98.37;79910.22;4993641;28;20403;-66
2023/02/09 06:57:36;;;;;;;;;;;;;;;-142.75;99.77;79920.06;4993875;28;19913;-67
2023/02/09 07:00:03;;;;;;;;;;;;;;;-142.75;100.00;79920.06;4976651;28;19960;-68
2023/02/09 07:02:28;;;;;;;;;;;;;;;-142.75;100.00;79935.84;4978304;28;19922;-67
2023/02/09 07:04:53;;;;;;;;;;;;;;;-142.75;100.00;79929.91;4988841;28;19914;-67
2023/02/09 07:07:18;;;;;;;;;;;;;;;-142.75;100.00;79918.09;4990512;28;20297;-66
2023/02/09 07:09:44;;;;;;;;;;;;;;;-142.75;100.00;79910.22;4993642;28;19976;-67
2023/02/09 07:12:09;;;;;;;;;;;;;;;-142.75;100.00;79896.44;4977533;28;19914;-66
2023/02/09 07:14:34;;;;;;;;;;;;;;;-142.75;100.00;79894.47;4991706;28;19960;-66
2023/02/09 07:16:59;;;;;;;;;;;;;;;-142.75;99.66;79910.22;4993495;28;19921;-66
2023/02/09 07:19:24;;;;;;;;;;;;;;;-142.75;100.00;79904.31;4993296;28;20302;-66
2023/02/09 07:21:50;;;;;;;;;;;;;;;-142.75;99.73;79890.50;4974850;28;19964;-66
2023/02/09 07:24:15;;;;;;;;;;;;;;;-142.75;99.21;79912.19;4990876;28;19921;-67
2023/02/09 07:26:40;;;;;;;;;;;;;;;-142.75;100.00;79892.50;4991598;28;20309;-66
2023/02/09 07:29:05;;;;;;;;;;;;;;;-142.75;100.00;79890.50;4993283;28;19961;-66
2023/02/09 07:31:31;;;;;;;;;;;;;;;-142.75;100.00;79894.47;4991823;28;19914;-67
2023/02/09 07:33:57;;;;;;;;;;;;;;;-142.75;100.00;79882.63;4988693;28;20383;-66
2023/02/09 07:36:22;;;;;;;;;;;;;;;-142.75;100.00;79874.75;4984250;28;20004;-66
2023/02/09 07:38:47;;;;;;;;;;;;;;;-142.75;100.00;79882.63;4982328;28;19921;-66
2023/02/09 07:41:14;;;;;;;;;;;;;;;-142.75;100.00;79870.81;4983781;28;19922;-67
2023/02/09 07:43:40;;;;;;;;;;;;;;;-142.75;100.00;79880.66;4979909;28;20300;-66
2023/02/09 07:46:06;;;;;;;;;;;;;;;-142.75;100.00;79870.81;4978655;28;20004;-68
2023/02/09 07:48:31;;;;;;;;;;;;;;;-142.75;100.00;79864.91;4977558;28;19960;-66
2023/02/09 07:50:57;;;;;;;;;;;;;;;-142.75;100.00;79878.69;4990865;28;19953;-67
2023/02/09 07:53:22;;;;;;;;;;;;;;;-142.75;100.00;79855.06;4992738;28;19953;-66
2023/02/09 07:55:47;;;;;;;;;;;;;;;-142.75;100.00;79853.09;4991164;28;19964;-66
2023/02/09 07:58:16;;;;;;;;;;;;;;;-142.75;100.00;79855.06;4992638;28;20360;-66
2023/02/09 08:00:42;;;;;;;;;;;;;;;-142.75;100.00;79866.88;4991317;28;19918;-67
2023/02/09 08:03:07;;;;;;;;;;;;;;;-142.75;100.00;79870.81;4985658;28;20319;-68
2023/02/09 08:05:36;;;;;;;;;;;;;;;-142.75;100.00;79855.06;4974488;28;19928;-66
2023/02/09 08:08:01;;;;;;;;;;;;;;;-142.75;100.00;79827.47;4973664;28;19924;-66
2023/02/09 08:10:26;;;;;;;;;;;;;;;-142.75;100.00;79819.59;4983520;28;19914;-67
2023/02/09 08:12:59;;;;;;;;;;;;;;;-142.75;100.00;79821.56;4979075;28;19914;-67
2023/02/09 08:15:26;;;;;;;;;;;;;;;-142.75;100.00;79799.91;4979617;28;19976;-66
2023/02/09 08:17:52;;;;;;;;;;;;;;;-142.75;100.00;79795.94;4974180;28;20330;-67
2023/02/09 08:20:20;;;;;;;;;;;;;;;-142.75;100.00;79784.13;4984937;28;20546;-67
2023/02/09 08:22:48;;;;;;;;;;;;;;;-142.75;100.00;79786.09;4975897;28;20042;-67
2023/02/09 08:25:15;;;;;;;;;;;;;;;-142.75;100.00;79788.06;4972346;28;19960;-67
2023/02/09 08:27:42;;;;;;;;;;;;;;;-142.75;100.00;79807.78;4974006;28;20016;-65
2023/02/09 08:30:07;;;;;;;;;;;;;;;-142.75;100.00;79776.25;4972483;28;19921;-67
2023/02/09 08:32:33;;;;;;;;;;;;;;;-142.75;100.00;79754.59;4978188;28;20305;-66
2023/02/09 08:34:58;;;;;;;;;;;;;;;-142.75;100.00;79750.66;4983419;28;19913;-66
2023/02/09 08:37:23;;;;;;;;;;;;;;;-142.75;100.00;79701.38;4980558;28;19914;-67
2023/02/09 08:39:48;;;;;;;;;;;;;;;-142.75;100.00;79713.22;4981452;28;19914;-67
2023/02/09 08:42:13;;;;;;;;;;;;;;;-142.75;100.00;79697.44;4988814;28;19918;-68
2023/02/09 08:44:39;;;;;;;;;;;;;;;-142.75;100.00;79689.56;4991994;28;19913;-64
2023/02/09 08:47:04;;;;;;;;;;;;;;;-142.75;100.00;79685.63;4989142;28;20374;-67
2023/02/09 08:49:29;;;;;;;;;;;;;;;-142.75;99.52;79665.94;4982479;28;19917;-66
2023/02/09 08:51:54;;;;;;;;;;;;;;;-142.75;99.47;79663.97;4980289;28;19956;-67
2023/02/09 08:54:20;;;;;;;;;;;;;;;-142.75;98.30;79642.28;4987951;28;19916;-68
2023/02/09 08:56:45;;;;;;;;;;;;;;;-142.75;98.94;79685.63;4988080;28;19929;-67
2023/02/09 08:59:10;;;;;;;;;;;;;;;-142.75;99.52;79689.56;4978322;28;19964;-68
2023/02/09 09:01:37;;;;;;;;;;;;;;;-142.75;100.00;79691.53;4990456;28;19961;-67
2023/02/09 09:04:03;;;;;;;;;;;;;;;-142.75;100.00;79663.97;4991358;28;19910;-69
2023/02/09 09:06:28;;;;;;;;;;;;;;;-142.75;100.00;79658.06;4991407;28;19913;-67
2023/02/09 09:08:53;;;;;;;;;;;;;;;-142.75;99.90;79669.88;4987567;28;19936;-68
2023/02/09 09:11:19;;;;;;;;;;;;;;;-142.75;100.00;79620.63;4990388;28;20044;-68
2023/02/09 09:13:45;;;;;;;;;;;;;;;-142.75;99.45;79602.88;4991456;28;19941;-68
2023/02/09 09:16:14;;;;;;;;;;;;;;;-142.75;97.37;79573.34;4994366;28;19956;-68
2023/02/09 09:18:39;;;;;;;;;;;;;;;-142.75;96.49;79539.84;4995571;28;20044;-68
2023/02/09 09:21:04;;;;;;;;;;;;;;;-142.75;96.20;79502.44;4995614;28;20001;-68
2023/02/09 09:23:30;;;;;;;;;;;;;;;-142.75;95.11;79478.78;4994300;28;19919;-68
2023/02/09 09:25:59;;;;;;;;;;;;;;;-142.75;93.31;79461.06;4995272;28;19984;-68
2023/02/09 09:28:24;;;;;;;;;;;;;;;-142.75;92.41;79453.19;4995617;28;19917;-68
2023/02/09 09:30:49;;;;;;;;;;;;;;;-142.75;92.57;79480.75;4995426;28;19921;-68
2023/02/09 09:33:14;;;;;;;;;;;;;;;-142.75;92.91;79496.50;4995235;28;19917;-68
2023/02/09 09:35:40;;;;;;;;;;;;;;;-142.75;92.99;79498.47;4995212;28;19909;-68
2023/02/09 09:38:05;;;;;;;;;;;;;;;-142.75;94.30;79468.94;4980317;28;19920;-68
2023/02/09 09:40:31;;;;;;;;;;;;;;;-142.75;93.24;79441.34;4994095;28;19910;-68
2023/02/09 09:43:00;;;;;;;;;;;;;;;-142.75;92.21;79425.59;4995192;28;20327;-68
2023/02/09 09:45:26;;;;;;;;;;;;;;;-142.75;91.16;79392.13;4995162;28;19910;-67
2023/02/09 09:47:52;;;;;;;;;;;;;;;-142.75;90.37;79396.06;4989491;28;20404;-68
2023/02/09 09:50:17;;;;;;;;;;;;;;;-142.75;89.96;79374.38;4994496;28;19949;-68
2023/02/09 09:52:54;;;;;;;;;;;;;;;-142.75;90.24;79350.75;4994980;28;19909;-68
2023/02/09 09:55:24;;;;;;;;;;;;;;;-142.75;89.22;79338.94;4994913;28;20268;-68
2023/02/09 09:57:49;;;;;;;;;;;;;;;-142.75;88.88;79398.03;4993776;28;19910;-68
2023/02/09 10:00:25;;;;;;;;;;;;;;;-142.75;90.95;79370.44;4994758;28;20000;-68
2023/02/09 10:02:51;;;;;;;;;;;;;;;-142.75;90.87;79342.88;4994925;28;19967;-67
2023/02/09 10:05:18;;;;;;;;;;;;;;;-142.75;91.26;79329.06;4994535;28;19914;-68
2023/02/09 10:07:48;;;;;;;;;;;;;;;-142.75;90.76;79307.41;4994856;28;19956;-68
2023/02/09 10:10:17;;;;;;;;;;;;;;;-142.75;90.62;79307.41;4994768;28;19917;-68
2023/02/09 10:12:50;;;;;;;;;;;;;;;-142.75;91.13;79309.38;4994628;28;19910;-68
2023/02/09 10:15:24;;;;;;;;;;;;;;;-142.75;92.05;79323.16;4993200;28;19909;-68
2023/02/09 10:17:50;;;;;;;;;;;;;;;-142.75;91.69;79309.38;4993470;28;19909;-68
2023/02/09 10:20:15;;;;;;;;;;;;;;;-142.75;91.71;79299.53;4992945;28;20044;-68
2023/02/09 10:22:44;;;;;;;;;;;;;;;-142.75;91.36;79329.06;4994492;28;20008;-67
2023/02/09 10:25:42;;;;;;;;;;;;;;;-142.75;92.72;79346.81;4992733;28;20357;-68
2023/02/09 10:28:17;;;;;;;;;;;;;;;-142.75;93.38;79327.09;4982288;28;19916;-68
2023/02/09 10:30:44;;;;;;;;;;;;;;;-142.75;94.76;79311.34;4994449;28;19910;-67
2023/02/09 10:33:12;;;;;;;;;;;;;;;-142.75;93.62;79297.56;4994265;28;19910;-67
2023/02/09 10:35:52;;;;;;;;;;;;;;;-142.75;93.26;79295.59;4993989;28;19929;-65
2023/02/09 10:38:18;;;;;;;;;;;;;;;-142.75;92.75;79291.66;4994304;28;19910;-67
2023/02/09 10:40:46;;;;;;;;;;;;;;;-142.75;92.49;79346.81;4993830;28;19955;-68
2023/02/09 10:43:23;;;;;;;;;;;;;;;-142.75;93.73;79307.41;4992807;28;19926;-68
2023/02/09 10:45:56;;;;;;;;;;;;;;;-142.75;93.41;79297.56;4993955;28;19992;-68
2023/02/09 10:48:23;;;;;;;;;;;;;;;-142.75;94.07;79323.16;4993882;28;20007;-68
2023/02/09 10:50:57;;;;;;;;;;;;;;;-142.75;94.08;79323.16;4993841;28;19914;-68
2023/02/09 10:53:22;;;;;;;;;;;;;;;-142.75;95.28;79327.09;4992705;28;19909;-68
2023/02/09 10:55:47;;;;;;;;;;;;;;;-142.75;95.95;79301.50;4993596;28;20031;-67
2023/02/09 10:58:18;;;;;;;;;;;;;;;-142.75;94.98;79285.75;4983822;28;19917;-68
2023/02/09 11:00:44;;;;;;;;;;;;;;;-142.75;96.51;79309.38;4992688;28;19909;-67
2023/02/09 11:03:16;;;;;;;;;;;;;;;-142.75;96.64;79283.78;4993643;28;19936;-68
2023/02/09 11:05:42;;;;;;;;;;;;;;;-142.75;95.88;79224.69;4993519;28;19921;-69
2023/02/09 11:08:21;;;;;;;;;;;;;;;-142.75;93.69;79165.59;4992466;28;19914;-65
2023/02/09 11:11:04;;;;;;;;;;;;;;;-142.75;90.25;79080.88;4992321;28;19909;-67
2023/02/09 11:13:31;;;;;;;;;;;;;;;-142.75;88.18;79053.31;4993723;28;20362;-68
2023/02/09 11:16:10;;;;;;;;;;;;;;;-142.75;86.25;79094.69;4993290;28;19914;-66
2023/02/09 11:18:37;;;;;;;;;;;;;;;-142.75;87.96;79053.31;4993550;28;19909;-67
2023/02/09 11:21:03;;;;;;;;;;;;;;;-142.75;87.66;79039.53;4988784;28;19910;-68
2023/02/09 11:23:31;;;;;;;;;;;;;;;-142.75;86.63;79002.09;4991458;28;20020;-67
2023/02/09 11:26:01;;;;;;;;;;;;;;;-142.75;86.56;79025.72;4993249;28;20406;-68
2023/02/09 11:28:26;;;;;;;;;;;;;;;-142.75;86.51;79059.22;4993329;28;19993;-68
2023/02/09 11:31:02;;;;;;;;;;;;;;;-142.75;86.87;79043.47;4983909;28;19975;-68
2023/02/09 11:33:46;;;;;;;;;;;;;;;-142.75;87.59;79051.34;4973898;28;19916;-67
2023/02/09 11:36:31;;;;;;;;;;;;;;;-142.75;89.35;79104.53;4992130;28;20348;-68
2023/02/09 11:38:59;;;;;;;;;;;;;;;-142.75;90.62;79118.31;4981565;28;19917;-67
2023/02/09 11:44:24;;;;;;;;;;;;;;;-142.75;93.02;79096.66;4991305;28;19972;-67
2023/02/09 11:46:52;;;;;;;;;;;;;;;-142.75;92.64;79059.22;4992415;28;19913;-69
2023/02/09 11:49:20;;;;;;;;;;;;;;;-142.75;91.54;79051.34;4991741;28;19909;-68
2023/02/09 11:51:46;;;;;;;;;;;;;;;-142.75;91.31;79063.16;4991630;28;20317;-67
2023/02/09 11:54:21;;;;;;;;;;;;;;;-142.75;92.91;79055.28;4992761;28;19921;-67
2023/02/09 11:56:48;;;;;;;;;;;;;;;-142.75;93.25;79071.03;4982640;28;19926;-68
2023/02/09 11:59:31;;;;;;;;;;;;;;;-142.75;92.79;79071.03;4972194;28;20325;-68
2023/02/09 12:02:15;;;;;;;;;;;;;;;-142.75;94.89;79100.59;4977414;28;20375;-68
2023/02/09 12:04:47;;;;;;;;;;;;;;;-142.75;96.23;79094.69;4992354;28;19910;-67
2023/02/09 12:07:12;;;;;;;;;;;;;;;-142.75;95.37;79043.47;4992557;28;20576;-68
2023/02/09 12:09:50;;;;;;;;;;;;;;;-142.75;93.91;78992.25;4991341;28;19921;-67
2023/02/09 12:12:27;;;;;;;;;;;;;;;-142.75;92.39;78994.22;4978347;28;19910;-68
2023/02/09 12:14:56;;;;;;;;;;;;;;;-142.75;92.89;78980.44;4971545;28;19960;-67
2023/02/09 12:17:27;;;;;;;;;;;;;;;-142.75;92.76;78948.91;4989199;28;19964;-67
2023/02/09 12:19:59;;;;;;;;;;;;;;;-142.75;91.06;78944.97;4992257;28;19971;-68
2023/02/09 12:22:34;;;;;;;;;;;;;;;-142.75;91.00;78960.72;4985448;28;20280;-68
2023/02/09 12:25:22;;;;;;;;;;;;;;;-142.75;92.38;78954.81;4989103;28;19964;-67
2023/02/09 12:28:20;;;;;;;;;;;;;;;-142.75;93.10;78931.19;4988978;28;19909;-66
2023/02/09 12:30:45;;;;;;;;;;;;;;;-142.75;94.54;78984.38;4976297;28;19910;-66
2023/02/09 12:33:18;;;;;;;;;;;;;;;-142.75;95.95;78980.44;4976859;28;19917;-67